Terminal Aerodrome Forecast
Issued by NWS

Home | Current Version | Previous Version | Graphics & Text | Print | Product List | Glossary Off
Versions: 1 2 3 4 5 6 7 8 9 10 11 12 13 14 15 16 17 18 19 20 21 22 23 24 25 26 27 28 29 30 31 32 33 34 35 36 37 38 39 40 41 42 43 44 45 46 47 48 49 50

000
FTUS43 KDDC 031733 AAA
TAFGCK
TAF AMD
KGCK 031733Z 0318/0418 10003KT 3SM BR VCSH OVC003
     FM032000 14007KT 1SM BR VCSH OVC003
     FM040000 15003KT 3SM BR OVC010
     FM040600 32009KT P6SM SKC
     FM041500 32009G18KT P6SM SKC=

USA.gov is the U.S. government's official web portal to all federal, state and local government web resources and services.